Time;durP1;ratioP1;P1;durP2;ratioP2;P2;SDS_P1;SDS_P2;PMS_P1;PMS_P2;Temp;Humidity;BMP_temperature;BMP_pressure;BME280_temperature;BME280_humidity;BME280_pressure;Samples;Min_cycle;Max_cycle;Signal;HPM_P1;HPM_P2
2024/01/01 00:00:08;;;;;;;69.60;57.90;;;;;;;;;;426173;23;744;-85
2024/01/01 00:00:20;;;;;;;69.45;57.38;;;;;;;;;;426191;23;885;-84
2024/01/01 00:00:31;;;;;;;67.15;57.03;;;;;;;;;;424246;23;933;-85
2024/01/01 00:00:42;;;;;;;64.65;56.42;;;;;;;;;;426313;23;909;-85
2024/01/01 00:00:52;;;;;;;66.38;56.95;;;;;;;;;;425886;23;799;-84
2024/01/01 00:01:04;;;;;;;66.13;56.03;;;;;;;;;;426162;23;767;-85
2024/01/01 00:01:14;;;;;;;65.28;55.45;;;;;;;;;;424066;23;961;-84
2024/01/01 00:01:25;;;;;;;66.40;55.30;;;;;;;;;;424002;23;1295;-86
2024/01/01 00:01:39;;;;;;;66.68;55.40;;;;;;;;;;424220;23;806;-85
2024/01/01 00:01:49;;;;;;;65.03;55.90;;;;;;;;;;427853;23;945;-85
2024/01/01 00:02:00;;;;;;;64.03;55.93;;;;;;;;;;428275;23;877;-85
2024/01/01 00:02:11;;;;;;;62.30;54.83;;;;;;;;;;428141;23;1154;-84
2024/01/01 00:02:23;;;;;;;63.95;54.72;;;;;;;;;;430263;23;869;-84
2024/01/01 00:02:33;;;;;;;66.10;55.72;;;;;;;;;;426306;23;846;-83
2024/01/01 00:02:44;;;;;;;67.67;56.87;;;;;;;;;;426226;23;1311;-84
2024/01/01 00:02:54;;;;;;;67.93;56.13;;;;;;;;;;423629;23;1262;-84
2024/01/01 00:03:05;;;;;;;66.77;55.13;;;;;;;;;;425914;23;1266;-84
2024/01/01 00:03:15;;;;;;;67.53;57.30;;;;;;;;;;426196;23;833;-84
2024/01/01 00:03:26;;;;;;;74.37;65.63;;;;;;;;;;426102;23;810;-86
2024/01/01 00:03:37;;;;;;;81.90;72.95;;;;;;;;;;423905;23;1332;-84
2024/01/01 00:03:48;;;;;;;87.10;77.68;;;;;;;;;;422916;23;1345;-86
2024/01/01 00:03:58;;;;;;;83.10;74.10;;;;;;;;;;425773;23;1194;-85
2024/01/01 00:04:09;;;;;;;78.43;69.78;;;;;;;;;;425978;23;1264;-85
2024/01/01 00:04:19;;;;;;;72.43;63.88;;;;;;;;;;423622;23;1312;-86
2024/01/01 00:04:30;;;;;;;68.30;60.20;;;;;;;;;;425907;23;1180;-87
2024/01/01 00:04:41;;;;;;;64.07;56.83;;;;;;;;;;428159;23;1306;-84
2024/01/01 00:04:51;;;;;;;64.50;55.53;;;;;;;;;;425711;23;810;-86
2024/01/01 00:05:01;;;;;;;63.97;54.08;;;;;;;;;;424189;23;854;-84
2024/01/01 00:05:12;;;;;;;64.23;54.33;;;;;;;;;;428160;23;1318;-86
2024/01/01 00:05:22;;;;;;;64.05;53.83;;;;;;;;;;425872;23;1260;-86
2024/01/01 00:05:33;;;;;;;64.30;54.63;;;;;;;;;;427813;23;1259;-86
2024/01/01 00:05:43;;;;;;;63.60;54.25;;;;;;;;;;430341;23;1270;-84
2024/01/01 00:05:54;;;;;;;62.27;53.77;;;;;;;;;;429681;23;1229;-84
2024/01/01 00:06:04;;;;;;;62.47;53.88;;;;;;;;;;428259;23;1537;-84
2024/01/01 00:06:15;;;;;;;62.77;53.83;;;;;;;;;;426031;23;1394;-86
2024/01/01 00:06:25;;;;;;;61.75;52.95;;;;;;;;;;425999;23;1377;-86
2024/01/01 00:06:36;;;;;;;62.80;52.87;;;;;;;;;;428146;23;1175;-84
2024/01/01 00:06:46;;;;;;;63.10;52.95;;;;;;;;;;423695;23;1303;-84
2024/01/01 00:06:57;;;;;;;64.07;52.70;;;;;;;;;;424037;23;1371;-84
2024/01/01 00:07:07;;;;;;;63.17;52.40;;;;;;;;;;426096;23;1262;-87
2024/01/01 00:07:18;;;;;;;61.93;51.93;;;;;;;;;;428245;23;838;-84
2024/01/01 00:07:28;;;;;;;59.08;51.88;;;;;;;;;;428041;23;1446;-84
2024/01/01 00:07:39;;;;;;;57.37;50.67;;;;;;;;;;424174;23;1147;-84
2024/01/01 00:07:51;;;;;;;56.97;49.75;;;;;;;;;;423968;23;878;-84
2024/01/01 00:08:02;;;;;;;59.75;50.33;;;;;;;;;;424182;23;981;-86
2024/01/01 00:08:12;;;;;;;61.28;49.85;;;;;;;;;;425950;23;1183;-84
2024/01/01 00:08:23;;;;;;;61.28;50.35;;;;;;;;;;428118;23;1158;-87
2024/01/01 00:08:33;;;;;;;60.17;49.80;;;;;;;;;;426296;23;1355;-85
2024/01/01 00:08:43;;;;;;;58.93;50.63;;;;;;;;;;428224;23;1247;-84
2024/01/01 00:08:54;;;;;;;58.63;50.45;;;;;;;;;;427754;23;1395;-84
2024/01/01 00:09:04;;;;;;;59.10;50.50;;;;;;;;;;428215;23;1509;-83
2024/01/01 00:09:15;;;;;;;59.75;49.72;;;;;;;;;;426203;23;830;-85
2024/01/01 00:09:25;;;;;;;61.03;50.57;;;;;;;;;;423526;23;858;-84
2024/01/01 00:09:36;;;;;;;59.80;50.55;;;;;;;;;;425999;23;1303;-87
2024/01/01 00:09:46;;;;;;;57.78;50.97;;;;;;;;;;428081;23;1238;-86
2024/01/01 00:09:57;;;;;;;56.40;49.73;;;;;;;;;;427679;23;844;-85
2024/01/01 00:10:08;;;;;;;60.28;51.28;;;;;;;;;;428087;23;889;-85
2024/01/01 00:10:19;;;;;;;63.30;52.25;;;;;;;;;;430344;23;865;-85
2024/01/01 00:10:29;;;;;;;64.17;52.77;;;;;;;;;;430177;23;1158;-84
2024/01/01 00:10:39;;;;;;;63.13;52.60;;;;;;;;;;426205;23;1585;-84
2024/01/01 00:10:50;;;;;;;62.17;51.93;;;;;;;;;;425776;23;1244;-84
2024/01/01 00:11:00;;;;;;;62.15;51.70;;;;;;;;;;424279;23;779;-87
2024/01/01 00:11:11;;;;;;;61.22;51.03;;;;;;;;;;425995;23;1320;-84
2024/01/01 00:11:21;;;;;;;62.03;51.17;;;;;;;;;;428153;23;1243;-84
2024/01/01 00:11:32;;;;;;;61.20;50.13;;;;;;;;;;426167;23;1238;-86
2024/01/01 00:11:42;;;;;;;61.88;50.30;;;;;;;;;;426205;23;1184;-86
2024/01/01 00:11:53;;;;;;;62.43;51.10;;;;;;;;;;425780;23;842;-86
2024/01/01 00:12:04;;;;;;;62.80;52.20;;;;;;;;;;426263;23;904;-83
2024/01/01 00:12:14;;;;;;;61.78;51.85;;;;;;;;;;423900;23;1272;-86
2024/01/01 00:12:24;;;;;;;60.60;51.27;;;;;;;;;;424135;23;886;-84
2024/01/01 00:12:35;;;;;;;59.95;51.22;;;;;;;;;;424285;23;787;-88
2024/01/01 00:12:46;;;;;;;61.37;51.80;;;;;;;;;;424257;23;755;-85
2024/01/01 00:12:56;;;;;;;64.30;53.00;;;;;;;;;;423397;23;846;-86
2024/01/01 00:13:07;;;;;;;65.28;53.50;;;;;;;;;;424187;23;795;-86
2024/01/01 00:13:18;;;;;;;66.73;54.40;;;;;;;;;;426219;23;849;-83
2024/01/01 00:13:28;;;;;;;64.65;54.28;;;;;;;;;;430184;23;1940;-84
2024/01/01 00:13:39;;;;;;;63.17;53.38;;;;;;;;;;428413;23;802;-86
2024/01/01 00:13:49;;;;;;;61.53;52.47;;;;;;;;;;426139;23;759;-85
2024/01/01 00:14:00;;;;;;;59.97;51.00;;;;;;;;;;426245;23;775;-83
2024/01/01 00:14:11;;;;;;;61.53;52.03;;;;;;;;;;424129;23;767;-84
2024/01/01 00:14:21;;;;;;;63.30;52.60;;;;;;;;;;424086;23;997;-84
2024/01/01 00:14:32;;;;;;;64.80;53.33;;;;;;;;;;426282;23;782;-84
2024/01/01 00:14:42;;;;;;;65.05;53.17;;;;;;;;;;426352;23;818;-84
2024/01/01 00:14:53;;;;;;;66.57;54.37;;;;;;;;;;429666;23;799;-87
2024/01/01 00:15:04;;;;;;;67.55;54.97;;;;;;;;;;427947;23;901;-86
2024/01/01 00:15:14;;;;;;;67.38;54.80;;;;;;;;;;425812;23;1011;-87
2024/01/01 00:15:25;;;;;;;63.47;54.47;;;;;;;;;;426112;23;833;-87
2024/01/01 00:15:35;;;;;;;63.97;54.03;;;;;;;;;;426122;23;877;-87
2024/01/01 00:15:46;;;;;;;63.53;53.97;;;;;;;;;;423999;23;1282;-86
2024/01/01 00:15:56;;;;;;;64.97;54.05;;;;;;;;;;423827;23;882;-84
2024/01/01 00:16:06;;;;;;;65.17;54.77;;;;;;;;;;426159;23;992;-84
2024/01/01 00:16:17;;;;;;;65.70;55.60;;;;;;;;;;424134;23;862;-84
2024/01/01 00:16:28;;;;;;;65.87;55.77;;;;;;;;;;424181;23;878;-87
2024/01/01 00:16:38;;;;;;;66.85;56.40;;;;;;;;;;424121;23;828;-86
2024/01/01 00:16:49;;;;;;;67.93;56.22;;;;;;;;;;424249;23;842;-86
2024/01/01 00:16:59;;;;;;;66.63;55.83;;;;;;;;;;423809;23;799;-85
2024/01/01 00:17:10;;;;;;;64.88;55.50;;;;;;;;;;426021;23;841;-86
2024/01/01 00:17:20;;;;;;;64.40;55.23;;;;;;;;;;426164;23;902;-86
2024/01/01 00:17:31;;;;;;;66.75;56.28;;;;;;;;;;428187;23;1191;-87
2024/01/01 00:17:41;;;;;;;69.10;57.73;;;;;;;;;;426255;23;1246;-86
2024/01/01 00:17:52;;;;;;;69.70;58.63;;;;;;;;;;425844;23;807;-84
2024/01/01 00:18:02;;;;;;;69.30;58.20;;;;;;;;;;426281;23;849;-84
2024/01/01 00:18:14;;;;;;;68.47;57.15;;;;;;;;;;428152;23;1222;-83
2024/01/01 00:18:25;;;;;;;69.68;57.33;;;;;;;;;;427911;23;1396;-83
2024/01/01 00:18:35;;;;;;;68.47;58.03;;;;;;;;;;427963;23;818;-83
2024/01/01 00:18:47;;;;;;;69.47;57.78;;;;;;;;;;426366;23;862;-85
2024/01/01 00:18:58;;;;;;;69.30;57.53;;;;;;;;;;425847;23;837;-84
2024/01/01 00:19:08;;;;;;;70.40;57.37;;;;;;;;;;426232;23;795;-85
2024/01/01 00:19:19;;;;;;;67.78;58.65;;;;;;;;;;426280;23;818;-86
2024/01/01 00:19:29;;;;;;;66.13;57.85;;;;;;;;;;423999;23;1822;-84
2024/01/01 00:19:40;;;;;;;64.83;56.47;;;;;;;;;;424148;23;840;-87
2024/01/01 00:19:51;;;;;;;66.80;55.83;;;;;;;;;;426104;23;1221;-85
2024/01/01 00:20:02;;;;;;;67.82;56.60;;;;;;;;;;425921;23;771;-86
2024/01/01 00:20:13;;;;;;;68.50;58.15;;;;;;;;;;423953;23;799;-86
2024/01/01 00:20:23;;;;;;;69.22;58.08;;;;;;;;;;423566;23;1333;-84
2024/01/01 00:20:34;;;;;;;69.03;58.10;;;;;;;;;;423603;23;830;-88
2024/01/01 00:20:44;;;;;;;69.22;57.17;;;;;;;;;;424036;23;929;-86
2024/01/01 00:20:55;;;;;;;65.40;56.03;;;;;;;;;;423662;23;1842;-87
2024/01/01 00:21:06;;;;;;;65.13;55.83;;;;;;;;;;425900;23;1196;-86
2024/01/01 00:21:16;;;;;;;64.22;55.20;;;;;;;;;;425979;23;1273;-87
2024/01/01 00:21:28;;;;;;;66.67;56.00;;;;;;;;;;423897;23;1370;-84
2024/01/01 00:21:38;;;;;;;67.28;56.13;;;;;;;;;;424106;23;1339;-85
2024/01/01 00:21:48;;;;;;;68.00;56.53;;;;;;;;;;424267;23;799;-84
2024/01/01 00:21:59;;;;;;;69.38;57.92;;;;;;;;;;423623;23;1262;-87
2024/01/01 00:22:09;;;;;;;70.60;59.27;;;;;;;;;;424140;23;819;-85
2024/01/01 00:22:20;;;;;;;69.88;59.08;;;;;;;;;;424199;23;787;-84
2024/01/01 00:22:30;;;;;;;67.77;56.90;;;;;;;;;;426155;23;1135;-87
2024/01/01 00:22:42;;;;;;;66.03;55.25;;;;;;;;;;426181;23;1199;-84
2024/01/01 00:22:52;;;;;;;66.25;55.33;;;;;;;;;;424112;23;905;-84
2024/01/01 00:23:03;;;;;;;65.35;55.35;;;;;;;;;;423914;23;1255;-84
2024/01/01 00:23:13;;;;;;;65.30;54.80;;;;;;;;;;426113;23;1431;-84
2024/01/01 00:23:24;;;;;;;63.53;53.50;;;;;;;;;;423869;23;1254;-84
2024/01/01 00:23:34;;;;;;;63.83;53.17;;;;;;;;;;426165;23;818;-83
2024/01/01 00:23:45;;;;;;;64.97;53.83;;;;;;;;;;426259;23;787;-84
2024/01/01 00:23:55;;;;;;;65.78;53.88;;;;;;;;;;423686;23;1268;-87
2024/01/01 00:24:06;;;;;;;65.30;53.07;;;;;;;;;;426040;23;1160;-84
2024/01/01 00:24:17;;;;;;;63.15;51.92;;;;;;;;;;428161;23;1233;-86
2024/01/01 00:24:27;;;;;;;63.20;52.10;;;;;;;;;;428211;23;850;-83
2024/01/01 00:24:38;;;;;;;60.47;52.20;;;;;;;;;;428356;23;854;-84
2024/01/01 00:24:48;;;;;;;60.63;52.72;;;;;;;;;;428235;23;1258;-87
2024/01/01 00:24:59;;;;;;;58.13;51.07;;;;;;;;;;425916;23;830;-83
2024/01/01 00:25:10;;;;;;;57.80;50.00;;;;;;;;;;426200;23;877;-84
2024/01/01 00:25:21;;;;;;;58.13;49.90;;;;;;;;;;423973;23;1346;-86
2024/01/01 00:25:35;;;;;;;58.92;49.97;;;;;;;;;;430122;23;1302;-84
2024/01/01 00:25:46;;;;;;;58.65;50.03;;;;;;;;;;428171;23;840;-86
2024/01/01 00:25:56;;;;;;;58.43;49.63;;;;;;;;;;425790;23;1391;-87
2024/01/01 00:26:07;;;;;;;58.20;49.40;;;;;;;;;;425686;23;803;-85
2024/01/01 00:26:18;;;;;;;57.97;49.30;;;;;;;;;;424060;23;772;-85
2024/01/01 00:26:28;;;;;;;58.10;49.13;;;;;;;;;;423820;23;1188;-87
2024/01/01 00:26:39;;;;;;;57.15;48.42;;;;;;;;;;426029;23;849;-87
2024/01/01 00:26:49;;;;;;;57.43;48.83;;;;;;;;;;426067;23;783;-87
2024/01/01 00:27:00;;;;;;;57.05;48.45;;;;;;;;;;425736;23;905;-87
2024/01/01 00:27:10;;;;;;;57.50;47.67;;;;;;;;;;426248;23;818;-87
2024/01/01 00:27:20;;;;;;;56.17;46.90;;;;;;;;;;426123;23;1072;-84
2024/01/01 00:27:34;;;;;;;57.03;46.73;;;;;;;;;;428308;23;787;-84
2024/01/01 00:27:44;;;;;;;55.78;46.90;;;;;;;;;;427522;23;850;-85
2024/01/01 00:27:55;;;;;;;57.03;47.17;;;;;;;;;;426103;23;905;-84
2024/01/01 00:28:08;;;;;;;55.97;46.15;;;;;;;;;;426193;23;870;-86
2024/01/01 00:28:19;;;;;;;55.03;46.38;;;;;;;;;;424278;23;902;-84
2024/01/01 00:28:29;;;;;;;55.88;46.30;;;;;;;;;;424159;23;834;-84
2024/01/01 00:28:40;;;;;;;54.13;45.57;;;;;;;;;;424241;23;854;-87
2024/01/01 00:28:50;;;;;;;53.20;44.95;;;;;;;;;;424224;23;811;-85
2024/01/01 00:29:02;;;;;;;53.40;45.87;;;;;;;;;;423842;23;815;-84
2024/01/01 00:29:12;;;;;;;54.10;45.92;;;;;;;;;;424282;23;897;-84
2024/01/01 00:29:24;;;;;;;55.90;46.55;;;;;;;;;;424105;23;783;-84
2024/01/01 00:29:35;;;;;;;52.88;44.98;;;;;;;;;;426069;23;1279;-84
2024/01/01 00:29:45;;;;;;;51.83;44.47;;;;;;;;;;424147;23;1438;-87
2024/01/01 00:29:56;;;;;;;51.37;43.60;;;;;;;;;;425933;23;854;-83
2024/01/01 00:30:07;;;;;;;51.70;44.03;;;;;;;;;;426204;23;842;-83
2024/01/01 00:30:17;;;;;;;52.10;44.33;;;;;;;;;;426138;23;1364;-83
2024/01/01 00:30:28;;;;;;;51.57;44.83;;;;;;;;;;426089;23;1199;-85
2024/01/01 00:30:38;;;;;;;51.03;44.53;;;;;;;;;;426263;23;822;-83
2024/01/01 00:30:48;;;;;;;50.27;43.67;;;;;;;;;;424133;23;1268;-85
2024/01/01 00:30:59;;;;;;;51.20;43.70;;;;;;;;;;427759;23;1192;-87
2024/01/01 00:31:09;;;;;;;53.07;43.23;;;;;;;;;;428107;23;1235;-84
2024/01/01 00:31:20;;;;;;;53.53;43.40;;;;;;;;;;428279;23;1425;-83
2024/01/01 00:31:31;;;;;;;53.60;43.13;;;;;;;;;;428119;23;1485;-85
2024/01/01 00:31:42;;;;;;;52.45;44.35;;;;;;;;;;427553;23;1314;-86
2024/01/01 00:31:53;;;;;;;52.20;44.72;;;;;;;;;;423760;23;1187;-88
2024/01/01 00:32:05;;;;;;;51.20;44.50;;;;;;;;;;423423;23;1321;-87
2024/01/01 00:32:16;;;;;;;49.47;43.92;;;;;;;;;;428028;23;1406;-86
2024/01/01 00:32:26;;;;;;;48.88;43.20;;;;;;;;;;425789;23;1427;-84
2024/01/01 00:32:37;;;;;;;50.00;43.70;;;;;;;;;;424218;23;814;-84
2024/01/01 00:32:47;;;;;;;49.13;42.58;;;;;;;;;;426100;23;1236;-84
2024/01/01 00:32:58;;;;;;;49.03;42.53;;;;;;;;;;425718;23;1388;-84
2024/01/01 00:33:09;;;;;;;49.88;42.80;;;;;;;;;;426167;23;1466;-88
2024/01/01 00:33:19;;;;;;;50.75;42.55;;;;;;;;;;423849;23;808;-87
2024/01/01 00:33:29;;;;;;;49.83;42.30;;;;;;;;;;424681;23;1962;-84
2024/01/01 00:33:40;;;;;;;48.83;41.70;;;;;;;;;;424215;23;882;-86
2024/01/01 00:33:50;;;;;;;48.65;42.38;;;;;;;;;;424298;23;748;-86
2024/01/01 00:34:01;;;;;;;49.40;43.13;;;;;;;;;;425823;23;833;-84
2024/01/01 00:34:11;;;;;;;49.13;43.20;;;;;;;;;;426283;23;822;-84
2024/01/01 00:34:22;;;;;;;49.78;42.85;;;;;;;;;;426190;23;783;-86
2024/01/01 00:34:32;;;;;;;48.90;41.70;;;;;;;;;;428321;23;881;-87
2024/01/01 00:34:44;;;;;;;49.67;41.70;;;;;;;;;;428348;23;747;-86
2024/01/01 00:34:54;;;;;;;50.08;42.25;;;;;;;;;;428138;23;881;-86
2024/01/01 00:35:05;;;;;;;50.22;42.53;;;;;;;;;;425429;23;1374;-83
2024/01/01 00:35:16;;;;;;;49.28;42.08;;;;;;;;;;426148;23;902;-85
2024/01/01 00:35:26;;;;;;;48.47;41.43;;;;;;;;;;426101;23;1239;-84
2024/01/01 00:35:37;;;;;;;48.53;41.67;;;;;;;;;;425674;23;1315;-84
2024/01/01 00:35:48;;;;;;;49.47;41.93;;;;;;;;;;424171;23;1411;-83
2024/01/01 00:35:58;;;;;;;49.50;41.85;;;;;;;;;;425680;23;1349;-84
2024/01/01 00:36:09;;;;;;;50.25;42.13;;;;;;;;;;426166;23;1212;-87
2024/01/01 00:36:19;;;;;;;47.83;41.50;;;;;;;;;;428181;23;1222;-84
2024/01/01 00:36:30;;;;;;;48.65;41.78;;;;;;;;;;426240;23;795;-84
2024/01/01 00:36:40;;;;;;;46.40;40.33;;;;;;;;;;426163;23;1207;-85
2024/01/01 00:36:51;;;;;;;45.83;39.38;;;;;;;;;;426143;23;826;-85
2024/01/01 00:37:01;;;;;;;44.50;39.22;;;;;;;;;;427934;23;897;-88
2024/01/01 00:37:12;;;;;;;47.17;40.00;;;;;;;;;;425819;23;1230;-85
2024/01/01 00:37:22;;;;;;;46.67;40.20;;;;;;;;;;423755;23;783;-83
2024/01/01 00:37:33;;;;;;;46.37;40.07;;;;;;;;;;423941;23;1438;-89
2024/01/01 00:37:43;;;;;;;45.63;40.00;;;;;;;;;;423997;23;795;-84
2024/01/01 00:37:54;;;;;;;47.40;40.63;;;;;;;;;;425796;23;1241;-87
2024/01/01 00:38:04;;;;;;;48.25;40.75;;;;;;;;;;425686;23;888;-87
2024/01/01 00:38:15;;;;;;;48.13;41.22;;;;;;;;;;428329;23;1391;-88
2024/01/01 00:38:26;;;;;;;47.77;41.37;;;;;;;;;;426074;23;1160;-87
2024/01/01 00:38:36;;;;;;;46.58;41.08;;;;;;;;;;424085;23;1310;-87
2024/01/01 00:38:47;;;;;;;45.50;40.23;;;;;;;;;;428152;23;1365;-86
2024/01/01 00:38:57;;;;;;;45.50;39.60;;;;;;;;;;426107;23;905;-87
2024/01/01 00:39:08;;;;;;;47.80;39.73;;;;;;;;;;425839;23;1225;-87
2024/01/01 00:39:18;;;;;;;47.97;39.97;;;;;;;;;;426180;23;1546;-83
2024/01/01 00:39:28;;;;;;;47.27;40.30;;;;;;;;;;426181;23;826;-87
2024/01/01 00:39:39;;;;;;;45.70;40.00;;;;;;;;;;426320;23;826;-86
2024/01/01 00:39:50;;;;;;;45.87;39.97;;;;;;;;;;426153;23;1373;-87
2024/01/01 00:40:00;;;;;;;46.65;39.13;;;;;;;;;;425929;23;767;-85
2024/01/01 00:40:11;;;;;;;45.55;38.83;;;;;;;;;;424145;23;859;-86
2024/01/01 00:40:23;;;;;;;45.08;39.53;;;;;;;;;;426146;23;799;-85
2024/01/01 00:40:33;;;;;;;44.97;40.10;;;;;;;;;;426153;23;1413;-87
2024/01/01 00:40:44;;;;;;;45.75;40.40;;;;;;;;;;426341;23;799;-87
2024/01/01 00:40:54;;;;;;;47.40;40.30;;;;;;;;;;423931;23;1167;-86
2024/01/01 00:41:05;;;;;;;46.80;39.65;;;;;;;;;;423833;23;850;-86
2024/01/01 00:41:16;;;;;;;46.80;39.53;;;;;;;;;;424111;23;1141;-87
2024/01/01 00:41:26;;;;;;;44.35;39.10;;;;;;;;;;424058;23;886;-86
2024/01/01 00:41:36;;;;;;;44.80;39.50;;;;;;;;;;426184;23;855;-86
2024/01/01 00:41:47;;;;;;;45.37;39.80;;;;;;;;;;426182;23;799;-84
2024/01/01 00:41:57;;;;;;;46.90;39.45;;;;;;;;;;426076;23;787;-85
2024/01/01 00:42:08;;;;;;;45.70;38.90;;;;;;;;;;425987;23;791;-86
2024/01/01 00:42:18;;;;;;;44.60;38.78;;;;;;;;;;426263;23;873;-85
2024/01/01 00:42:29;;;;;;;43.70;38.90;;;;;;;;;;425740;23;826;-83
2024/01/01 00:42:42;;;;;;;43.58;38.75;;;;;;;;;;424205;23;838;-86
2024/01/01 00:42:53;;;;;;;44.13;38.53;;;;;;;;;;425426;23;1346;-86
2024/01/01 00:43:03;;;;;;;43.88;38.47;;;;;;;;;;423676;23;865;-85
2024/01/01 00:43:14;;;;;;;43.50;38.40;;;;;;;;;;424074;23;851;-86
2024/01/01 00:43:24;;;;;;;44.80;38.83;;;;;;;;;;423937;23;823;-85
2024/01/01 00:43:35;;;;;;;45.05;39.17;;;;;;;;;;423876;23;1220;-87
2024/01/01 00:43:48;;;;;;;46.57;39.83;;;;;;;;;;424238;23;836;-84
2024/01/01 00:43:59;;;;;;;46.17;39.95;;;;;;;;;;423978;23;873;-86
2024/01/01 00:44:09;;;;;;;43.75;39.05;;;;;;;;;;423788;23;787;-83
2024/01/01 00:44:19;;;;;;;43.10;38.40;;;;;;;;;;424290;23;830;-87
2024/01/01 00:44:31;;;;;;;43.15;38.45;;;;;;;;;;426182;23;830;-84
2024/01/01 00:44:45;;;;;;;44.65;38.78;;;;;;;;;;424267;23;898;-83
2024/01/01 00:44:56;;;;;;;45.67;38.97;;;;;;;;;;423818;23;1409;-84
2024/01/01 00:45:07;;;;;;;46.20;38.87;;;;;;;;;;423870;23;878;-87
2024/01/01 00:45:17;;;;;;;45.00;39.05;;;;;;;;;;424235;23;850;-86
2024/01/01 00:45:27;;;;;;;44.53;39.45;;;;;;;;;;424099;23;859;-83
2024/01/01 00:45:38;;;;;;;44.60;39.63;;;;;;;;;;424195;23;901;-84
2024/01/01 00:45:48;;;;;;;45.67;40.05;;;;;;;;;;424211;23;811;-84
2024/01/01 00:45:59;;;;;;;44.73;38.97;;;;;;;;;;424037;23;874;-84
2024/01/01 00:46:10;;;;;;;45.33;39.08;;;;;;;;;;423939;23;814;-85
2024/01/01 00:46:20;;;;;;;44.60;37.88;;;;;;;;;;426176;23;846;-84
2024/01/01 00:46:31;;;;;;;44.43;37.67;;;;;;;;;;426173;23;811;-84
2024/01/01 00:46:41;;;;;;;43.55;36.90;;;;;;;;;;426174;23;763;-85
2024/01/01 00:46:52;;;;;;;44.00;38.07;;;;;;;;;;424015;23;759;-85
2024/01/01 00:47:03;;;;;;;43.42;38.22;;;;;;;;;;427875;23;882;-85
2024/01/01 00:47:13;;;;;;;43.15;38.45;;;;;;;;;;428253;23;806;-87
2024/01/01 00:47:24;;;;;;;41.50;37.00;;;;;;;;;;428223;23;787;-83
2024/01/01 00:47:34;;;;;;;42.70;37.38;;;;;;;;;;428386;23;813;-83
2024/01/01 00:47:45;;;;;;;42.17;36.67;;;;;;;;;;426282;23;814;-83
2024/01/01 00:47:56;;;;;;;44.85;37.13;;;;;;;;;;426122;23;834;-84
2024/01/01 00:48:07;;;;;;;43.23;36.73;;;;;;;;;;424063;23;1049;-85
2024/01/01 00:48:17;;;;;;;44.17;37.33;;;;;;;;;;424179;23;874;-83
2024/01/01 00:48:28;;;;;;;45.20;38.30;;;;;;;;;;423566;23;801;-86
2024/01/01 00:48:38;;;;;;;44.92;38.50;;;;;;;;;;424059;23;775;-86
2024/01/01 00:48:49;;;;;;;44.93;39.20;;;;;;;;;;423981;23;907;-87
2024/01/01 00:48:59;;;;;;;43.75;38.53;;;;;;;;;;423931;23;800;-85
2024/01/01 00:49:09;;;;;;;43.97;38.17;;;;;;;;;;423695;23;799;-85
2024/01/01 00:49:20;;;;;;;43.05;37.60;;;;;;;;;;424217;23;842;-84
2024/01/01 00:49:30;;;;;;;42.30;37.50;;;;;;;;;;426036;23;979;-84
2024/01/01 00:49:41;;;;;;;42.15;37.42;;;;;;;;;;426309;23;779;-84
2024/01/01 00:49:51;;;;;;;41.70;36.80;;;;;;;;;;425864;23;648;-84
2024/01/01 00:50:04;;;;;;;40.95;36.20;;;;;;;;;;426043;23;853;-87
2024/01/01 00:50:14;;;;;;;41.40;35.92;;;;;;;;;;426312;23;873;-87
2024/01/01 00:50:24;;;;;;;42.13;35.80;;;;;;;;;;426140;23;902;-85
2024/01/01 00:50:35;;;;;;;42.90;36.23;;;;;;;;;;426198;23;806;-87
2024/01/01 00:50:45;;;;;;;41.92;36.13;;;;;;;;;;424039;23;1224;-84
2024/01/01 00:50:56;;;;;;;43.30;37.07;;;;;;;;;;423947;23;1260;-84
2024/01/01 00:51:06;;;;;;;42.72;36.90;;;;;;;;;;423715;23;1550;-83
2024/01/01 00:51:17;;;;;;;44.20;36.87;;;;;;;;;;424030;23;1375;-84
2024/01/01 00:51:27;;;;;;;42.75;36.65;;;;;;;;;;423901;23;1397;-84
2024/01/01 00:51:38;;;;;;;42.23;36.70;;;;;;;;;;424207;23;802;-85
2024/01/01 00:51:48;;;;;;;41.92;37.30;;;;;;;;;;426102;23;1259;-83
2024/01/01 00:51:59;;;;;;;41.47;36.77;;;;;;;;;;425974;23;1255;-84
2024/01/01 00:52:09;;;;;;;41.58;36.10;;;;;;;;;;425905;23;823;-84
2024/01/01 00:52:19;;;;;;;41.10;36.10;;;;;;;;;;424100;23;1484;-83
2024/01/01 00:52:30;;;;;;;42.88;38.08;;;;;;;;;;425977;23;1287;-83
2024/01/01 00:52:41;;;;;;;43.47;38.80;;;;;;;;;;426162;23;1279;-85
2024/01/01 00:52:51;;;;;;;43.10;38.38;;;;;;;;;;428123;23;1164;-86
2024/01/01 00:53:02;;;;;;;42.07;36.73;;;;;;;;;;425890;23;1366;-84
2024/01/01 00:53:12;;;;;;;42.72;36.80;;;;;;;;;;423788;23;1196;-84
2024/01/01 00:53:23;;;;;;;42.57;36.53;;;;;;;;;;428280;23;755;-84
2024/01/01 00:53:33;;;;;;;42.28;36.88;;;;;;;;;;428289;23;1909;-86
2024/01/01 00:53:44;;;;;;;41.65;35.83;;;;;;;;;;428275;23;903;-85
2024/01/01 00:53:54;;;;;;;42.67;36.70;;;;;;;;;;423815;23;772;-85
2024/01/01 00:54:05;;;;;;;43.93;37.33;;;;;;;;;;423475;23;1166;-83
2024/01/01 00:54:15;;;;;;;43.23;37.63;;;;;;;;;;425946;23;842;-86
2024/01/01 00:54:28;;;;;;;42.20;36.83;;;;;;;;;;427866;23;905;-86
2024/01/01 00:54:38;;;;;;;41.50;36.53;;;;;;;;;;428143;23;866;-86
2024/01/01 00:54:49;;;;;;;41.28;36.70;;;;;;;;;;428055;23;916;-84
2024/01/01 00:55:00;;;;;;;42.10;37.50;;;;;;;;;;428235;23;834;-84
2024/01/01 00:55:10;;;;;;;42.30;37.70;;;;;;;;;;428053;23;842;-83
2024/01/01 00:55:21;;;;;;;43.28;37.72;;;;;;;;;;428285;23;779;-84
2024/01/01 00:55:31;;;;;;;42.05;36.97;;;;;;;;;;426183;23;826;-84
2024/01/01 00:55:42;;;;;;;42.87;37.33;;;;;;;;;;426203;23;779;-84
2024/01/01 00:55:52;;;;;;;42.92;37.80;;;;;;;;;;428241;23;921;-85
2024/01/01 00:56:03;;;;;;;44.87;38.93;;;;;;;;;;426274;23;913;-85
2024/01/01 00:56:13;;;;;;;44.80;38.53;;;;;;;;;;425770;23;1534;-86
2024/01/01 00:56:24;;;;;;;45.10;38.17;;;;;;;;;;424048;23;834;-86
2024/01/01 00:56:34;;;;;;;45.08;37.72;;;;;;;;;;424169;23;890;-86
2024/01/01 00:56:45;;;;;;;44.23;37.13;;;;;;;;;;424104;23;807;-86
2024/01/01 00:56:55;;;;;;;44.08;37.55;;;;;;;;;;424040;23;925;-87
2024/01/01 00:57:06;;;;;;;42.83;37.37;;;;;;;;;;424100;23;834;-84
2024/01/01 00:57:16;;;;;;;43.00;37.63;;;;;;;;;;423817;23;795;-84
2024/01/01 00:57:27;;;;;;;41.50;36.67;;;;;;;;;;423754;23;1055;-86
2024/01/01 00:57:37;;;;;;;41.63;36.83;;;;;;;;;;424230;23;927;-86
2024/01/01 00:57:47;;;;;;;42.17;37.07;;;;;;;;;;426064;23;897;-86
2024/01/01 00:57:58;;;;;;;44.20;38.08;;;;;;;;;;426161;23;889;-86
2024/01/01 00:58:08;;;;;;;43.03;37.50;;;;;;;;;;425937;23;831;-85
2024/01/01 00:58:19;;;;;;;41.95;37.33;;;;;;;;;;426275;23;830;-86
2024/01/01 00:58:29;;;;;;;42.27;37.43;;;;;;;;;;423914;23;792;-83
2024/01/01 00:58:40;;;;;;;42.63;37.53;;;;;;;;;;424035;23;1192;-86
2024/01/01 00:58:51;;;;;;;43.50;38.00;;;;;;;;;;424013;23;1216;-85
2024/01/01 00:59:01;;;;;;;43.03;37.73;;;;;;;;;;426077;23;846;-84
2024/01/01 00:59:12;;;;;;;43.97;37.60;;;;;;;;;;423731;23;1184;-87
2024/01/01 00:59:22;;;;;;;43.43;37.30;;;;;;;;;;424021;23;1208;-84
2024/01/01 00:59:33;;;;;;;43.40;36.97;;;;;;;;;;423986;23;799;-84
2024/01/01 00:59:43;;;;;;;44.30;37.13;;;;;;;;;;425957;23;831;-87
2024/01/01 00:59:54;;;;;;;44.92;37.70;;;;;;;;;;425544;23;1203;-85
2024/01/01 01:00:05;;;;;;;44.60;37.80;;;;;;;;;;426013;23;846;-85
2024/01/01 01:00:15;;;;;;;42.90;37.30;;;;;;;;;;423663;23;1378;-86
2024/01/01 01:00:26;;;;;;;42.33;36.78;;;;;;;;;;425942;23;905;-87
2024/01/01 01:00:37;;;;;;;42.60;36.60;;;;;;;;;;426281;23;751;-86
2024/01/01 01:00:48;;;;;;;41.78;37.13;;;;;;;;;;426191;23;787;-87
2024/01/01 01:00:58;;;;;;;41.53;37.00;;;;;;;;;;426167;23;799;-87
2024/01/01 01:01:08;;;;;;;41.20;36.37;;;;;;;;;;423946;23;819;-86
2024/01/01 01:01:19;;;;;;;43.13;36.97;;;;;;;;;;424134;23;870;-85
2024/01/01 01:01:29;;;;;;;44.27;37.97;;;;;;;;;;424015;23;973;-85
2024/01/01 01:01:40;;;;;;;45.07;38.67;;;;;;;;;;424161;23;823;-86
2024/01/01 01:01:50;;;;;;;44.08;37.25;;;;;;;;;;424140;23;796;-88
2024/01/01 01:02:01;;;;;;;43.83;36.63;;;;;;;;;;424202;23;946;-84
2024/01/01 01:02:11;;;;;;;42.83;36.78;;;;;;;;;;423880;23;823;-84
2024/01/01 01:02:22;;;;;;;41.80;36.38;;;;;;;;;;424040;23;846;-85
2024/01/01 01:02:32;;;;;;;41.73;36.57;;;;;;;;;;424245;23;799;-84
2024/01/01 01:02:43;;;;;;;41.50;36.63;;;;;;;;;;426122;23;741;-84
2024/01/01 01:02:53;;;;;;;42.33;36.33;;;;;;;;;;423967;23;870;-84
2024/01/01 01:03:04;;;;;;;43.08;36.13;;;;;;;;;;424136;23;1017;-84
2024/01/01 01:03:15;;;;;;;42.90;36.22;;;;;;;;;;423912;23;799;-86
2024/01/01 01:03:25;;;;;;;43.13;36.63;;;;;;;;;;424098;23;861;-86
2024/01/01 01:03:36;;;;;;;43.22;36.65;;;;;;;;;;424114;23;859;-87
2024/01/01 01:03:46;;;;;;;43.83;36.53;;;;;;;;;;424097;23;863;-86
2024/01/01 01:03:57;;;;;;;42.63;36.65;;;;;;;;;;424134;23;806;-84
2024/01/01 01:04:07;;;;;;;43.30;36.53;;;;;;;;;;424102;23;833;-84
2024/01/01 01:04:18;;;;;;;42.92;36.53;;;;;;;;;;423910;23;776;-84
2024/01/01 01:04:28;;;;;;;43.47;37.03;;;;;;;;;;423967;23;1265;-83